May 19, 2022

Time Code Weather Temp. Visibility Clouds Wind METAR/SPECI
9:25 pm
V
55 °F 6¼ mi+ - 270°   270° 9 kt METAR EHLW 191925Z AUTO 27009KT 230V300 9999 FEW009 SCT330 13/12 Q1019 BLU
9:14 pm
V
57 °F 6¼ mi+ - 270°   270° 9 kt METAR EHLW 191914Z AUTO 27009KT 240V310 9999 FEW007 14/12 Q1019 BLU
8:55 pm
I
57 °F 6¼ mi+ 700 ft 270°   270° 10 kt METAR EHLW 191855Z AUTO 27010KT 230V310 9999 BKN007 OVC008 14/13 Q1019 GRN
8:25 pm
I
57 °F 6¼ mi+ 800 ft 270°   270° 11 kt METAR EHLW 191825Z AUTO 27011KT 240V310 9999 SCT007 BKN008 14/13 Q1018 GRN
7:59 pm
I
59 °F 6¼ mi+ 700 ft 270°   270° 11 kt METAR EHLW 191759Z AUTO 27011KT 240V300 9999 OVC007 15/13 Q1018 GRN
7:55 pm
I
59 °F 6¼ mi+ 600 ft 270°   270° 12 kt METAR EHLW 191755Z AUTO 27012KT 240V300 9999 OVC006 15/13 Q1018 YLO
7:33 pm
I
61 °F 6¼ mi+ 900 ft 270°   270° 12 kt METAR EHLW 191733Z AUTO 27012KT 240V300 9999 SCT008 BKN009 OVC011 16/14 Q1018 GRN
7:26 pm
M
63 °F 6¼ mi+ 1,100 ft 270°   270° 11 kt METAR EHLW 191726Z AUTO 27011KT 240V300 9999 FEW008 SCT009 BKN011 17/14 Q1017 GRN
7:25 pm
M
63 °F 6¼ mi+ 1,600 ft 270°   270° 9 kt METAR EHLW 191725Z AUTO 27009KT 9999 FEW009 SCT010 OVC016 17/14 Q1017 GRN
7:00 pm
M
61 °F 6¼ mi+ 1,100 ft 270°   270° 13 kt METAR EHLW 191700Z AUTO 27013KT 240V310 9999 BKN011 BKN015 BKN019 16/14 Q1017 GRN
6:59 pm
M
61 °F 6¼ mi+ 1,500 ft 270°   270° 13 kt METAR EHLW 191659Z AUTO 27013KT 230V310 9999 SCT011 BKN015 BKN019 16/15 Q1017 GRN
6:55 pm
M
61 °F 6¼ mi+ 1,500 ft 270°   270° 13 kt METAR EHLW 191655Z AUTO 27013KT 230V310 9999 FEW012 BKN015 BKN019 16/15 Q1017 WHT
6:41 pm
I
63 °F 6¼ mi+ 700 ft 270°   270° 14 kt METAR EHLW 191641Z AUTO 27014KT 250V310 9999 BKN007 BKN008 BKN011 17/15 Q1017 GRN
6:36 pm
M
63 °F 6¼ mi+ 1,400 ft 270°   270° 13 kt METAR EHLW 191636Z AUTO 27013KT 220V310 9999 FEW007 SCT008 BKN014 17/15 Q1017 GRN
6:35 pm
M
64 °F 6¼ mi+ 1,900 ft 260°   260° 11 kt METAR EHLW 191635Z AUTO 26011KT 220V300 9999 FEW012 SCT014 BKN019 18/16 Q1017 GRN
6:21 pm
V
68 °F 6¼ mi+ 4,400 ft 250°   250° 9 kt METAR EHLW 191621Z AUTO 25009KT 210V270 9999 FEW018 SCT022 BKN044 20/16 Q1016 WHT
5:55 pm
V
68 °F 6¼ mi+ - 240°   240° 7 kt METAR EHLW 191555Z AUTO 24007KT 210V280 9999 SCT048 20/16 Q1016 BLU
5:25 pm
V
68 °F 6¼ mi+ 31,000 ft 220°   220° 5 kt METAR EHLW 191525Z AUTO 22005KT 180V250 9999 OVC310 20/16 Q1016 BLU
4:55 pm
V
66 °F 6¼ mi+ 23,000 ft 200°   200° 4 kt METAR EHLW 191455Z AUTO 20004KT 150V240 9999 OVC230 19/16 Q1016 BLU
4:25 pm
V
64 °F 6¼ mi+ 16,000 ft 110°   110° 6 kt METAR EHLW 191425Z AUTO 11006KT 030V190 9999 OVC160 18/16 Q1015 BLU
4:21 pm
V
64 °F 6¼ mi+ 15,000 ft 100°   100° 6 kt METAR EHLW 191421Z AUTO 10006KT 030V190 9999 FEW094 OVC150 18/16 Q1015 BLU NOSIG
4:12 pm
V
63 °F 6¼ mi+ 13,000 ft Var   Var 5 kt METAR EHLW 191412Z AUTO VRB05KT 9999 FEW015CB OVC130 17/16 Q1016 BLU NOSIG
3:56 pm
V
63 °F 5⅝ mi 11,000 ft 100°   100° 5 kt METAR EHLW 191356Z AUTO 10005KT 040V160 9000 -DZ FEW015CB OVC110 17/16 Q1016 BLU NOSIG
3:55 pm
M
63 °F 3¾ mi 10,000 ft 130°   130° 4 kt METAR EHLW 191355Z AUTO 13004KT 040V200 6000 -DZ FEW015CB OVC100 17/16 Q1016 WHT NOSIG
3:39 pm
M
64 °F 4⅜ mi 1,500 ft 160°   160° 4 kt METAR EHLW 191339Z AUTO 16004KT 110V200 7000 -RA BKN015CB OVC100 18/17 Q1017 WHT TEMPO 25010G25KT 3000 SHRA TSRA SCT025 SCT040CB
3:27 pm
M
64 °F 4⅜ mi 1,500 ft 210°   210° 4 kt METAR EHLW 191327Z AUTO 21004KT 140V240 7000 -SHRA FEW005 BKN015CB BKN092 18/17 Q1018 WHT TEMPO 25010G25KT 3000 SHRA TSRA SCT025 SCT040CB
3:25 pm
M
64 °F 5⅝ mi 1,500 ft 230°   230° 7 kt METAR EHLW 191325Z AUTO 23007KT 190V260 9000 SHRA FEW005 SCT008 BKN015CB 18/17 Q1018 GRN TEMPO 25010G25KT 3000 SHRA TSRA SCT025 SCT040CB
3:12 pm
M
64 °F 4⅜ mi 9,300 ft 240°   240° 6 kt METAR EHLW 191312Z AUTO 24006KT 200V260 7000 -SHRA FEW004 SCT015CB OVC093 18/17 Q1018 WHT TEMPO 25010G25KT 3000 SHRA TSRA SCT025 SCT040CB
3:07 pm
V
64 °F 5 mi 9,300 ft 230°   230° 5 kt METAR EHLW 191307Z AUTO 23005KT 8000 -RA FEW004 SCT015CB BKN093 18/17 Q1018 WHT TEMPO 25010G25KT 3000 SHRA TSRA SCT025 SCT040CB
2:55 pm
M
64 °F 5⅝ mi 1,500 ft 220°   220° 6 kt METAR EHLW 191255Z AUTO 22006KT 180V240 9000 -SHRA BKN015CB SCT084 BKN089 18/17 Q1018 RETSRA WHT TEMPO 25010G25KT 3000 SHRA TSRA SCT025 SCT040CB
2:25 pm
M
66 °F 3¾ mi 2,300 ft 220°   220° 12 kt METAR EHLW 191225Z AUTO 22012KT 180V240 6000 TSRA FEW015CB SCT020 BKN023 19/17 Q1018 WHT TEMPO 25010G25KT 3000 SHRA TSRA SCT025 SCT040CB
2:06 pm
V
66 °F 5⅝ mi 7,100 ft 230°   230° 7 kt METAR EHLW 191206Z AUTO 23007KT 190V250 9000 TSRA FEW015CB SCT063 BKN071 19/17 Q1017 BLU TEMPO 25010G25KT 3000 SHRA TSRA SCT025 SCT040CB
1:55 pm
I
70 °F 1⅞ mi 6,100 ft 220°   220° 10 kt METAR EHLW 191155Z AUTO 22010KT 180V250 3000 R05/P3000N +TSRA FEW015CB BKN061 BKN067 21/17 Q1017 YLO TEMPO 25010G25KT 3000 SHRA TSRA SCT025 SCT040CB
1:42 pm
V
70 °F 6¼ mi+ 7,700 ft 230°   230° 6 kt METAR EHLW 191142Z AUTO 23006KT 190V260 9999 TS SCT021 OVC077 21/17 Q1016 WHT TEMPO 25010G25KT 3000 SHRA TSRA SCT025 SCT040CB
1:25 pm
V
72 °F 6¼ mi+ 9,100 ft 160°   160° 6 kt METAR EHLW 191125Z AUTO 16006KT 100V210 9999 SCT081 BKN091 OVC100 22/15 Q1015 BLU BECMG 16010KT
12:55 pm
V
70 °F 6¼ mi+ 12,000 ft 130°   130° 9 kt METAR EHLW 191055Z AUTO 13009KT 080V180 9999 OVC120 21/17 Q1015 BLU BECMG 16010KT
12:25 pm
V
68 °F 6¼ mi+ 10,000 ft 110°   110° 11 kt METAR EHLW 191025Z AUTO 11011KT 050V180 9999 SCT099 BKN100 20/17 Q1015 BLU BECMG 16010KT
11:55 am
M
66 °F 4⅜ mi 11,000 ft Var   Var 10 kt METAR EHLW 190955Z AUTO VRB10KT 7000 BR OVC110 19/16 Q1016 WHT TEMPO VRB06KT 4000 SHRA TSRA SCT004 SCT045CB
11:25 am
I
64 °F 3⅛ mi 600 ft Var   Var 7 kt METAR EHLW 190925Z AUTO VRB07KT 5000 BR SCT004 BKN006 OVC007 18/16 Q1017 YLO TEMPO VRB06KT 4000 SHRA TSRA SCT004 SCT045CB
11:01 am
I
64 °F 3¾ mi 500 ft Var   Var 4 kt METAR EHLW 190901Z AUTO VRB04KT 6000 BR SCT004 BKN005 BKN007 FEW015CB 18/16 Q1017 YLO TEMPO VRB06KT 4000 SHRA TSRA SCT004 SCT045CB
10:55 am
I
64 °F 3¾ mi 500 ft 070°   070° 3 kt METAR EHLW 190855Z AUTO 07003KT 340V100 6000 -RADZ BKN005 BKN006 FEW015CB 18/16 Q1017 YLO TEMPO VRB06KT 4000 SHRA TSRA SCT004 SCT045CB
10:25 am
I
64 °F 3¾ mi 500 ft 100°   100° 6 kt METAR EHLW 190825Z AUTO 10006KT 6000 BR BKN005 BKN006 BKN110 18/16 Q1017 YLO TEMPO VRB06KT 4000 SHRA TSRA SCT004 SCT045CB
10:19 am
I
63 °F 4⅜ mi 500 ft 090°   090° 6 kt METAR EHLW 190819Z AUTO 09006KT 7000 BR SCT004 BKN005 BKN110 17/16 Q1017 YLO TEMPO VRB06KT 4000 SHRA TSRA SCT004 SCT045CB
9:55 am
M
63 °F 3¾ mi 11,000 ft Var   Var 8 kt METAR EHLW 190755Z AUTO VRB08KT 6000 BR SCT004 OVC110 17/16 Q1017 YLO TEMPO VRB06KT 2500 SHRA TSRA
9:25 am
V
63 °F 5⅝ mi 9,800 ft 050°   050° 4 kt METAR EHLW 190725Z AUTO 05004KT 360V130 9000 BR FEW066 SCT089 BKN098 17/16 Q1017 BLU TEMPO VRB06KT 2500 SHRA TSRA
8:55 am
M
61 °F 3¾ mi 10,000 ft 360°   360° 5 kt METAR EHLW 190655Z AUTO 36005KT 330V030 6000 BR FEW015CB SCT096 OVC100 16/16 Q1016 WHT TEMPO VRB06KT 2500 SHRA TSRA
8:25 am
I
63 °F 1⅞ mi 1,500 ft 360°   360° 5 kt METAR EHLW 190625Z AUTO 36005KT 310V040 3000 R23/P3000D -SHRA BKN015CB SCT077 BKN089 17/16 Q1017 RERA YLO TEMPO VRB06KT 2500 SHRA TSRA
7:55 am
I
63 °F 2¾ mi 9,000 ft 260°   260° 9 kt METAR EHLW 190555Z AUTO 26009KT 210V290 4500 RA SCT015CB BKN090 OVC096 17/16 Q1018 RERA REDZ GRN TEMPO 4500 SHRA
7:25 am
M
61 °F 3¾ mi 2,800 ft 260°   260° 6 kt METAR EHLW 190525Z AUTO 26006KT 230V300 6000 -SHRA SCT015CB SCT025 BKN028 16/15 Q1018 REDZ WHT
7:15 am
M
61 °F 4⅜ mi 2,400 ft 240°   240° 9 kt METAR EHLW 190515Z AUTO 24009KT 210V270 7000 TSRA FEW015CB SCT021 BKN024 OVC028 16/14 Q1018 WHT
7:08 am
M
61 °F 4⅜ mi 2,800 ft 250°   250° 10 kt METAR EHLW 190508Z AUTO 25010KT 210V270 7000 -TSRA DZ FEW015CB SCT021 BKN028 16/14 Q1018 WHT
7:04 am
M
61 °F 4⅜ mi 2,500 ft 250°   250° 11 kt METAR EHLW 190504Z AUTO 25011KT 190V270 7000 DZ TS FEW015CB SCT022 BKN025 OVC067 16/14 Q1018 WHT
6:55 am
V
61 °F 5⅝ mi 7,400 ft 200°   200° 7 kt METAR EHLW 190455Z AUTO 20007KT 140V250 9000 TS BR FEW015CB SCT067 BKN074 16/14 Q1017 BLU
6:25 am
V
61 °F 6¼ mi+ 12,000 ft 120°   120° 7 kt METAR EHLW 190425Z AUTO 12007KT 080V160 9999 FEW015CB OVC120 16/13 Q1015 RETS BLU
6:16 am
V
61 °F 6¼ mi+ 13,000 ft 120°   120° 7 kt METAR EHLW 190416Z AUTO 12007KT 050V160 9999 FEW015CB OVC130 16/13 Q1016 BLU
5:59 am
V
61 °F 6¼ mi+ 18,000 ft 110°   110° 8 kt METAR EHLW 190359Z AUTO 11008KT 050V180 9999 TS FEW015CB OVC180 16/13 Q1016 BLU
5:55 am
V
61 °F 6¼ mi+ 18,000 ft 110°   110° 7 kt METAR EHLW 190355Z AUTO 11007KT 050V150 9999 OVC180 16/13 Q1016 BLU
5:25 am
V
59 °F 6¼ mi+ 10,000 ft 110°   110° 5 kt METAR EHLW 190325Z AUTO 11005KT 050V160 9999 FEW023 OVC100 15/13 Q1016 BLU
4:55 am
V
57 °F 5⅝ mi 9,300 ft 040°   040° 4 kt METAR EHLW 190255Z AUTO 04004KT 350V120 9000 BR FEW074 SCT087 BKN093 14/13 Q1017 BLU
4:25 am
V
59 °F 5⅝ mi 21,000 ft 090°   090° 3 kt METAR EHLW 190225Z AUTO 09003KT 350V160 9000 BR FEW140 OVC210 15/13 Q1017 BLU
4:06 am
V
59 °F 6¼ mi+ 22,000 ft Var   Var 4 kt METAR EHLW 190206Z AUTO VRB04KT 9999 OVC220 15/13 Q1017 BLU
3:55 am
V
57 °F 6¼ mi+ 7,600 ft Var   Var 4 kt METAR EHLW 190155Z AUTO VRB04KT 9999 BKN076 OVC240 14/13 Q1017 BLU
3:39 am
M
57 °F 4⅜ mi 24,000 ft Var   Var 4 kt METAR EHLW 190139Z AUTO VRB04KT 7000 BR OVC240 14/13 Q1017 WHT
3:25 am
M
55 °F 3⅛ mi 8,000 ft Var   Var 4 kt METAR EHLW 190125Z AUTO VRB04KT 5000 BR BKN080 BKN097 OVC240 13/13 Q1017 WHT
3:09 am
I
55 °F 1⅞ mi 8,900 ft Var   Var 4 kt METAR EHLW 190109Z AUTO VRB04KT 3100 BR SCT081 BKN089 BKN096 13/13 Q1018 YLO
3:07 am
I
55 °F 2⅝ mi 9,700 ft Var   Var 5 kt METAR EHLW 190107Z AUTO VRB05KT 4200 BR SCT084 SCT091 BKN097 13/12 Q1018 GRN
2:55 am
I
55 °F 1⅝ mi 24,000 ft Var   Var 4 kt METAR EHLW 190055Z AUTO VRB04KT 2700 BR FEW086 SCT092 OVC240 13/13 Q1018 YLO
2:47 am
I
55 °F 3 mi 24,000 ft 090°   090° 4 kt METAR EHLW 190047Z AUTO 09004KT 020V180 4800 BR FEW096 OVC240 13/13 Q1018 GRN
2:39 am
M
55 °F 3⅛ mi 24,000 ft 090°   090° 5 kt METAR EHLW 190039Z AUTO 09005KT 030V160 5000 BR FEW096 OVC240 13/12 Q1018 WHT
2:29 am
I
55 °F 1⅞ mi 24,000 ft 080°   080° 5 kt METAR EHLW 190029Z AUTO 08005KT 350V160 3100 BR OVC240/// 13/12 Q1018 YLO
2:25 am
I
54 °F 2½ mi 24,000 ft 090°   090° 5 kt METAR EHLW 190025Z AUTO 09005KT 350V160 4000 BR OVC240 12/12 Q1018 GRN
2:07 am
I
52 °F 1⅜ mi 23,000 ft 080°   080° 4 kt METAR EHLW 190007Z AUTO 08004KT 020V160 2200 BR OVC230 11/11 Q1018 YLO
2:00 am
L
52 °F ½ mi 34,000 ft 060°   060° 4 kt METAR EHLW 190000Z AUTO 06004KT 360V130 0750 FG SCT230 OVC340 11/11 Q1018 RED
1:55 am
I
52 °F 1½ mi 31,000 ft 060°   060° 4 kt METAR EHLW 182355Z AUTO 06004KT 010V130 2500 BR FEW240 BKN310 OVC360 11/11 Q1018 YLO
1:39 am
I
52 °F 3 mi 32,000 ft 050°   050° 4 kt METAR EHLW 182339Z AUTO 05004KT 360V090 4800 BR SCT240 OVC320 11/11 Q1018 GRN
1:33 am
I
52 °F 1¼ mi 24,000 ft Var   Var 4 kt METAR EHLW 182333Z AUTO VRB04KT 2000 BR BKN240 OVC320 11/11 Q1018 YLO
1:26 am
L
54 °F ½ mi 24,000 ft Var   Var 4 kt METAR EHLW 182326Z AUTO VRB04KT 0900 FG OVC240 12/12 Q1018 AMB
1:25 am
L
54 °F ⅜ mi 24,000 ft 070°   070° 4 kt METAR EHLW 182325Z AUTO 07004KT 360V130 0700 FG BKN240 OVC330 12/12 Q1019 RED
1:16 am
L
52 °F ⅝ mi 33,000 ft 080°   080° 4 kt METAR EHLW 182316Z AUTO 08004KT 340V140 1000 BR FEW260 OVC330 11/11 Q1019 AMB
1:11 am
I
54 °F 1 mi 33,000 ft Var   Var 4 kt METAR EHLW 182311Z AUTO VRB04KT 1700 BR OVC330 12/11 Q1019 YLO
12:55 am
I
52 °F 1⅝ mi 25,000 ft 070°   070° 4 kt METAR EHLW 182255Z AUTO 07004KT 010V160 2700 BR OVC250 11/11 Q1019 YLO
12:25 am
I
52 °F 1 mi 26,000 ft 070°   070° 3 kt METAR EHLW 182225Z AUTO 07003KT 360V120 1600 BR OVC260 11/11 Q1019 YLO

May 18, 2022

Time Code Weather Temp. Visibility Clouds Wind METAR/SPECI
11:55 pm
I
54 °F 1⅞ mi 25,000 ft 050°   050° 3 kt METAR EHLW 182155Z AUTO 05003KT 020V090 3100 BR OVC250 12/11 Q1019 YLO
11:35 pm
I
54 °F 1¾ mi 36,000 ft 070°   070° 3 kt METAR EHLW 182135Z AUTO 07003KT 340V130 2800 BR FEW270 OVC360 12/11 Q1020 YLO
11:26 pm
I
55 °F 2⅝ mi 36,000 ft Var   Var 3 kt METAR EHLW 182126Z AUTO VRB03KT 4300 BR SCT270 OVC360 13/12 Q1019 GRN
11:25 pm
I
55 °F 2 mi 36,000 ft Var   Var 4 kt METAR EHLW 182125Z AUTO VRB04KT 3200 BR SCT270 OVC360 13/12 Q1019 YLO
11:16 pm
I
54 °F 2⅛ mi 36,000 ft 060°   060° 4 kt METAR EHLW 182116Z AUTO 06004KT 010V110 3500 BR OVC360 12/11 Q1019 YLO
11:00 pm
M
55 °F 3¾ mi 36,000 ft 070°   070° 5 kt METAR EHLW 182100Z AUTO 07005KT 360V160 6000 BR OVC360 13/12 Q1020 WHT
10:59 pm
I
55 °F 2 mi 36,000 ft 070°   070° 4 kt METAR EHLW 182059Z AUTO 07004KT 350V150 3300 BR BKN360 13/12 Q1020 YLO
10:55 pm
M
55 °F 4⅜ mi 36,000 ft Var   Var 4 kt METAR EHLW 182055Z AUTO VRB04KT 7000 BR BKN360 13/12 Q1020 WHT
10:41 pm
M
55 °F 4⅜ mi 26,000 ft Var   Var 5 kt METAR EHLW 182041Z AUTO VRB05KT 7000 BR BKN260 OVC390 13/12 Q1020 WHT
10:25 pm
V
55 °F 6¼ mi+ 26,000 ft 070°   070° 5 kt METAR EHLW 182025Z AUTO 07005KT 350V150 9999 OVC260 13/12 Q1020 BLU
9:55 pm
V
55 °F 6¼ mi+ 27,000 ft Var   Var 2 kt METAR EHLW 181955Z AUTO VRB02KT 9999 OVC270 13/12 Q1020 BLU
9:25 pm
V
57 °F 6¼ mi+ 27,000 ft 360°   360° 2 kt METAR EHLW 181925Z AUTO 36002KT 9999 OVC270 14/12 Q1020 BLU
8:55 pm
V
59 °F 6¼ mi+ 25,000 ft 010°   010° 3 kt METAR EHLW 181855Z AUTO 01003KT 360V060 9999 OVC250 15/13 Q1020 BLU
8:25 pm
V
63 °F 6¼ mi+ 25,000 ft 350°   350° 4 kt METAR EHLW 181825Z AUTO 35004KT 9999 OVC250 17/13 Q1020 BLU
7:55 pm
V
64 °F 6¼ mi+ 26,000 ft 350°   350° 5 kt METAR EHLW 181755Z AUTO 35005KT 310V010 9999 OVC260 18/12 Q1020 BLU
7:25 pm
V
64 °F 6¼ mi+ 28,000 ft 330°   330° 5 kt METAR EHLW 181725Z AUTO 33005KT 300V010 9999 BKN280 OVC330 18/12 Q1020 BLU
6:55 pm
V
66 °F 6¼ mi+ 29,000 ft 340°   340° 6 kt METAR EHLW 181655Z AUTO 34006KT 290V020 9999 BKN290 OVC350 19/11 Q1020 BLU
6:25 pm
V
66 °F 6¼ mi+ 27,000 ft 340°   340° 6 kt METAR EHLW 181625Z AUTO 34006KT 290V010 9999 OVC270 19/12 Q1020 BLU
5:55 pm
V
66 °F 6¼ mi+ 30,000 ft 340°   340° 7 kt METAR EHLW 181555Z AUTO 34007KT 290V020 9999 OVC300 19/12 Q1021 BLU
5:25 pm
V
66 °F 6¼ mi+ 25,000 ft 330°   330° 9 kt METAR EHLW 181525Z AUTO 33009KT 280V010 9999 OVC250 19/12 Q1021 BLU
4:55 pm
V
66 °F 6¼ mi+ 28,000 ft 330°   330° 9 kt METAR EHLW 181455Z AUTO 33009KT 280V030 9999 FEW088 OVC280 19/13 Q1021 BLU
4:25 pm
V
66 °F 6¼ mi+ 9,400 ft 330°   330° 8 kt METAR EHLW 181425Z AUTO 33008KT 270V030 9999 SCT086 BKN094 BKN270 19/12 Q1021 BLU
4:17 pm
V
68 °F 6¼ mi+ 8,800 ft 330°   330° 8 kt METAR EHLW 181417Z AUTO 33008KT 270V010 9999 BKN088 BKN100 20/13 Q1021 BLU
3:55 pm
V
66 °F 6¼ mi+ 5,200 ft 320°   320° 8 kt METAR EHLW 181355Z AUTO 32008KT 250V020 9999 BKN052 BKN063 BKN068 19/13 Q1021 BLU NOSIG
3:25 pm
V
64 °F 6¼ mi+ 6,600 ft 320°   320° 8 kt METAR EHLW 181325Z AUTO 32008KT 290V010 9999 OVC066 18/14 Q1021 BLU NOSIG
2:55 pm
V
66 °F 6¼ mi+ 6,600 ft 320°   320° 7 kt METAR EHLW 181255Z AUTO 32007KT 270V360 9999 OVC066 19/14 Q1021 BLU NOSIG
2:25 pm
V
66 °F 6¼ mi+ 6,800 ft 310°   310° 9 kt METAR EHLW 181225Z AUTO 31009KT 260V350 9999 BKN068 BKN074 OVC086 19/14 Q1021 BLU NOSIG
1:55 pm
V
70 °F 6¼ mi+ 6,600 ft 300°   300° 5 kt METAR EHLW 181155Z AUTO 30005KT 210V350 9999 FEW061 BKN066 BKN079 21/14 Q1020 BLU NOSIG
1:25 pm
V
70 °F 6¼ mi+ 6,700 ft 300°   300° 7 kt METAR EHLW 181125Z AUTO 30007KT 250V330 9999 SCT060 BKN067 BKN078 21/15 Q1020 BLU NOSIG
12:55 pm
V
68 °F 6¼ mi+ 6,500 ft 240°   240° 5 kt METAR EHLW 181055Z AUTO 24005KT 220V290 9999 OVC065 20/14 Q1020 BLU NOSIG
12:25 pm
V
68 °F 6¼ mi+ 6,500 ft 250°   250° 4 kt METAR EHLW 181025Z AUTO 25004KT 190V300 9999 BKN065 OVC087 20/14 Q1020 BLU NOSIG
11:55 am
V
68 °F 6¼ mi+ 7,200 ft 280°   280° 7 kt METAR EHLW 180955Z AUTO 28007KT 240V340 9999 SCT065 BKN072 OVC093 20/14 Q1020 BLU NOSIG
11:25 am
V
70 °F 6¼ mi+ 8,100 ft 270°   270° 10 kt METAR EHLW 180925Z AUTO 27010KT 240V310 9999 SCT070 SCT076 BKN081 21/15 Q1020 BLU NOSIG
10:55 am
V
72 °F 6¼ mi+ - 250°   250° 8 kt METAR EHLW 180855Z AUTO 25008KT 210V280 9999 FEW400 22/14 Q1020 BLU NOSIG
10:25 am
V
72 °F 6¼ mi+ 38,000 ft 240°   240° 8 kt METAR EHLW 180825Z AUTO 24008KT 190V270 9999 BKN380 22/14 Q1019 BLU NOSIG
9:55 am
V
70 °F 6¼ mi+ 39,000 ft 220°   220° 8 kt METAR EHLW 180755Z AUTO 22008KT 190V250 9999 FEW071 SCT100 BKN390 21/14 Q1019 BLU NOSIG
9:30 am
V
70 °F 6¼ mi+ 13,000 ft 220°   220° 7 kt METAR EHLW 180730Z AUTO 22007KT 170V240 9999 BKN130 OVC380 21/15 Q1019 BLU NOSIG
9:25 am
V
68 °F 6¼ mi+ 11,000 ft 210°   210° 7 kt METAR EHLW 180725Z AUTO 21007KT 170V240 9999 OVC110 20/14 Q1019 BLU BECMG 22008KT
8:55 am
V
66 °F 6¼ mi+ 37,000 ft 190°   190° 8 kt METAR EHLW 180655Z AUTO 19008KT 150V250 9999 SCT059 SCT065 OVC370 19/15 Q1019 BLU BECMG 22008KT
8:25 am
V
64 °F 6¼ mi+ - 170°   170° 7 kt METAR EHLW 180625Z AUTO 17007KT 110V190 9999 NCD 18/14 Q1019 BLU BECMG 22005KT
8:00 am
V
63 °F 6¼ mi+ - 170°   170° 6 kt METAR EHLW 180600Z AUTO 17006KT 130V190 9999 FEW069 17/14 Q1019 BLU BECMG 22005KT
7:55 am
V
63 °F 6¼ mi+ - 170°   170° 7 kt METAR EHLW 180555Z AUTO 17007KT 130V190 9999 FEW071 17/14 Q1019 BLU
7:25 am
V
63 °F 6¼ mi+ 12,000 ft 160°   160° 6 kt METAR EHLW 180525Z AUTO 16006KT 120V180 9999 BKN120 17/13 Q1018 BLU
6:55 am
V
61 °F 6¼ mi+ - 150°   150° 7 kt METAR EHLW 180455Z AUTO 15007KT 120V180 9999 SCT130 16/13 Q1018 BLU
6:25 am
V
61 °F 6¼ mi+ 15,000 ft 140°   140° 8 kt METAR EHLW 180425Z AUTO 14008KT 100V160 9999 OVC150 16/13 Q1018 BLU
5:55 am
V
61 °F 6¼ mi+ - 150°   150° 7 kt METAR EHLW 180355Z AUTO 15007KT 110V170 9999 FEW170 16/13 Q1018 BLU
5:25 am
V
61 °F 6¼ mi+ 38,000 ft 140°   140° 7 kt METAR EHLW 180325Z AUTO 14007KT 110V170 9999 OVC380/// 16/13 Q1018 BLU
4:55 am
V
61 °F 6¼ mi+ 38,000 ft 140°   140° 7 kt METAR EHLW 180255Z AUTO 14007KT 110V170 9999 SCT190 OVC380 16/13 Q1018 BLU
4:25 am
V
61 °F 6¼ mi+ 38,000 ft 150°   150° 7 kt METAR EHLW 180225Z AUTO 15007KT 120V180 9999 SCT190 OVC380 16/13 Q1018 BLU
3:55 am
V
63 °F 6¼ mi+ 15,000 ft 150°   150° 7 kt METAR EHLW 180155Z AUTO 15007KT 100V170 9999 OVC150 17/13 Q1018 BLU
3:25 am
V
63 °F 6¼ mi+ - 150°   150° 5 kt METAR EHLW 180125Z AUTO 15005KT 9999 NCD 17/13 Q1018 BLU
2:55 am
V
63 °F 6¼ mi+ - 140°   140° 6 kt METAR EHLW 180055Z AUTO 14006KT 110V180 9999 NCD 17/13 Q1018 BLU
2:25 am
V
64 °F 6¼ mi+ - 130°   130° 8 kt METAR EHLW 180025Z AUTO 13008KT 080V150 9999 NCD 18/13 Q1018 BLU RMK CB INFO NOT AVBL
1:55 am
V
64 °F 6¼ mi+ 37,000 ft 130°   130° 8 kt METAR EHLW 172355Z AUTO 13008KT 070V160 9999 BKN370 18/13 Q1018 BLU
1:25 am
V
64 °F 6¼ mi+ 14,000 ft 130°   130° 8 kt METAR EHLW 172325Z AUTO 13008KT 090V160 9999 BKN140 18/14 Q1018 BLU
12:55 am
V
64 °F 6¼ mi+ 16,000 ft 130°   130° 8 kt METAR EHLW 172255Z AUTO 13008KT 090V170 9999 BKN160 18/13 Q1018 BLU
12:25 am
V
64 °F 6¼ mi+ 15,000 ft 120°   120° 6 kt METAR EHLW 172225Z AUTO 12006KT 060V170 9999 OVC150 18/13 Q1018 BLU

May 17, 2022

Time Code Weather Temp. Visibility Clouds Wind METAR/SPECI
11:55 pm
V
63 °F 6¼ mi+ 16,000 ft 100°   100° 4 kt METAR EHLW 172155Z AUTO 10004KT 020V150 9999 OVC160 17/13 Q1018 BLU
11:25 pm
V
63 °F 6¼ mi+ 15,000 ft Var   Var 5 kt METAR EHLW 172125Z AUTO VRB05KT 9999 OVC150 17/13 Q1019 BLU
10:55 pm
V
63 °F 6¼ mi+ 16,000 ft Var   Var 7 kt METAR EHLW 172055Z AUTO VRB07KT 9999 OVC160 17/12 Q1019 BLU
10:25 pm
V
63 °F 6¼ mi+ 14,000 ft 080°   080° 8 kt METAR EHLW 172025Z AUTO 08008KT 360V170 9999 OVC140 17/12 Q1019 BLU
9:55 pm
V
63 °F 6¼ mi+ 14,000 ft Var   Var 7 kt METAR EHLW 171955Z AUTO VRB07KT 9999 OVC140 17/13 Q1019 BLU
9:25 pm
V
63 °F 6¼ mi+ 14,000 ft 060°   060° 6 kt METAR EHLW 171925Z AUTO 06006KT 360V120 9999 OVC140 17/13 Q1019 BLU
8:55 pm
V
64 °F 6¼ mi+ 15,000 ft 060°   060° 9 kt METAR EHLW 171855Z AUTO 06009KT 360V110 9999 OVC150 18/11 Q1019 BLU
8:25 pm
V
64 °F 6¼ mi+ 16,000 ft 040°   040° 7 kt METAR EHLW 171825Z AUTO 04007KT 360V060 9999 OVC160 18/13 Q1019 BLU
7:55 pm
V
66 °F 6¼ mi+ 17,000 ft 050°   050° 9 kt METAR EHLW 171755Z AUTO 05009KT 360V070 9999 OVC170 19/12 Q1019 BLU
7:25 pm
V
68 °F 6¼ mi+ 18,000 ft 050°   050° 8 kt METAR EHLW 171725Z AUTO 05008KT 360V090 9999 OVC180 20/12 Q1019 BLU
6:55 pm
V
70 °F 6¼ mi+ 18,000 ft 040°   040° 6 kt METAR EHLW 171655Z AUTO 04006KT 360V090 9999 FEW060 BKN180 21/13 Q1019 BLU
6:25 pm
V
72 °F 6¼ mi+ 24,000 ft 050°   050° 4 kt METAR EHLW 171625Z AUTO 05004KT 350V130 9999 SCT045 OVC240 22/12 Q1019 BLU
5:55 pm
V
70 °F 6¼ mi+ 4,300 ft 020°   020° 5 kt METAR EHLW 171555Z AUTO 02005KT 340V100 9999 OVC043 21/12 Q1019 BLU
5:25 pm
V
70 °F 6¼ mi+ 5,900 ft 350°   350° 6 kt METAR EHLW 171525Z AUTO 35006KT 290V040 9999 FEW048 BKN059 BKN064 21/12 Q1019 BLU
4:55 pm
V
72 °F 6¼ mi+ 6,000 ft 020°   020° 7 kt METAR EHLW 171455Z AUTO 02007KT 360V070 9999 OVC060 22/11 Q1019 BLU
Older data

Download our app

Easy access to all aviation weather on your mobile phone and tablet.
With many features not available on the website, like offline support and a personal airport list.

We and third parties follow your internet behavior on our website with cookies. If you continue, we assume you agree with our cookie policy. Learn more